sensor_id;sensor_type;location;lat;lon;timestamp;pressure;altitude;pressure_sealevel;temperature;humidity
34103;BME280;20381;54.498;18.206;2023-06-14T00:01:47;100016.16;;;11.20;64.54
34103;BME280;20381;54.498;18.206;2023-06-14T00:04:14;100018.16;;;11.15;64.34
34103;BME280;20381;54.498;18.206;2023-06-14T00:06:44;100015.80;;;11.09;64.52
34103;BME280;20381;54.498;18.206;2023-06-14T00:09:12;100013.87;;;11.04;64.54
34103;BME280;20381;54.498;18.206;2023-06-14T00:11:40;100008.47;;;10.98;64.74
34103;BME280;20381;54.498;18.206;2023-06-14T00:14:07;100009.45;;;10.95;64.89
34103;BME280;20381;54.498;18.206;2023-06-14T00:16:34;100002.64;;;10.91;64.99
34103;BME280;20381;54.498;18.206;2023-06-14T00:19:01;100006.32;;;10.87;65.17
34103;BME280;20381;54.498;18.206;2023-06-14T00:21:31;100005.53;;;10.85;65.26
34103;BME280;20381;54.498;18.206;2023-06-14T00:23:58;99999.52;;;10.83;65.31
34103;BME280;20381;54.498;18.206;2023-06-14T00:26:25;100003.98;;;10.81;65.73
34103;BME280;20381;54.498;18.206;2023-06-14T00:28:53;100000.58;;;10.79;65.50
34103;BME280;20381;54.498;18.206;2023-06-14T00:31:19;100001.09;;;10.77;65.58
34103;BME280;20381;54.498;18.206;2023-06-14T00:33:46;99989.34;;;10.77;65.99
34103;BME280;20381;54.498;18.206;2023-06-14T00:36:13;99990.65;;;10.77;65.80
34103;BME280;20381;54.498;18.206;2023-06-14T00:38:39;99989.86;;;10.75;66.05
34103;BME280;20381;54.498;18.206;2023-06-14T00:41:06;99990.41;;;10.73;66.00
34103;BME280;20381;54.498;18.206;2023-06-14T00:43:32;99991.30;;;10.72;66.14
34103;BME280;20381;54.498;18.206;2023-06-14T00:46:01;99991.85;;;10.70;66.12
34103;BME280;20381;54.498;18.206;2023-06-14T00:48:28;99992.37;;;10.68;66.23
34103;BME280;20381;54.498;18.206;2023-06-14T00:50:56;99988.97;;;10.66;66.29
34103;BME280;20381;54.498;18.206;2023-06-14T00:53:24;99987.74;;;10.64;66.43
34103;BME280;20381;54.498;18.206;2023-06-14T00:55:51;99989.56;;;10.62;66.61
34103;BME280;20381;54.498;18.206;2023-06-14T00:58:19;99995.25;;;10.62;66.73
34103;BME280;20381;54.498;18.206;2023-06-14T01:00:47;99991.71;;;10.63;66.84
34103;BME280;20381;54.498;18.206;2023-06-14T01:03:14;99992.55;;;10.63;66.94
34103;BME280;20381;54.498;18.206;2023-06-14T01:05:43;99987.80;;;10.63;67.13
34103;BME280;20381;54.498;18.206;2023-06-14T01:08:22;99985.23;;;10.61;67.16
34103;BME280;20381;54.498;18.206;2023-06-14T01:11:02;99977.86;;;10.61;67.24
34103;BME280;20381;54.498;18.206;2023-06-14T01:13:40;99981.86;;;10.59;67.31
34103;BME280;20381;54.498;18.206;2023-06-14T01:16:08;99979.30;;;10.58;67.47
34103;BME280;20381;54.498;18.206;2023-06-14T01:18:34;99978.92;;;10.57;67.53
34103;BME280;20381;54.498;18.206;2023-06-14T01:21:01;99975.39;;;10.58;67.75
34103;BME280;20381;54.498;18.206;2023-06-14T01:23:29;99977.63;;;10.57;67.77
34103;BME280;20381;54.498;18.206;2023-06-14T01:25:58;99978.13;;;10.55;67.80
34103;BME280;20381;54.498;18.206;2023-06-14T01:28:25;99981.67;;;10.53;67.91
34103;BME280;20381;54.498;18.206;2023-06-14T01:30:55;99976.58;;;10.50;68.38
34103;BME280;20381;54.498;18.206;2023-06-14T01:33:24;99973.18;;;10.48;68.27
34103;BME280;20381;54.498;18.206;2023-06-14T01:35:52;99974.02;;;10.49;68.39
34103;BME280;20381;54.498;18.206;2023-06-14T01:38:21;99967.96;;;10.48;68.44
34103;BME280;20381;54.498;18.206;2023-06-14T01:40:49;99973.97;;;10.50;68.60
34103;BME280;20381;54.498;18.206;2023-06-14T01:43:17;99967.03;;;10.49;68.62
34103;BME280;20381;54.498;18.206;2023-06-14T01:45:46;99962.66;;;10.50;68.67
34103;BME280;20381;54.498;18.206;2023-06-14T01:48:13;99965.73;;;10.49;68.69
34103;BME280;20381;54.498;18.206;2023-06-14T01:50:40;99963.53;;;10.50;68.86
34103;BME280;20381;54.498;18.206;2023-06-14T01:53:08;99965.22;;;10.51;68.92
34103;BME280;20381;54.498;18.206;2023-06-14T01:55:34;99966.90;;;10.52;68.91
34103;BME280;20381;54.498;18.206;2023-06-14T01:58:04;99955.62;;;10.52;68.96
34103;BME280;20381;54.498;18.206;2023-06-14T02:00:30;99956.08;;;10.51;69.03
34103;BME280;20381;54.498;18.206;2023-06-14T02:02:57;99959.20;;;10.49;69.09
34103;BME280;20381;54.498;18.206;2023-06-14T02:05:24;99961.05;;;10.47;69.18
34103;BME280;20381;54.498;18.206;2023-06-14T02:07:51;99958.95;;;10.45;69.36
34103;BME280;20381;54.498;18.206;2023-06-14T02:10:17;99961.16;;;10.44;69.42
34103;BME280;20381;54.498;18.206;2023-06-14T02:12:45;99957.92;;;10.39;69.41
34103;BME280;20381;54.498;18.206;2023-06-14T02:15:11;99960.53;;;10.39;69.55
34103;BME280;20381;54.498;18.206;2023-06-14T02:17:47;99960.58;;;10.38;69.62
34103;BME280;20381;54.498;18.206;2023-06-14T02:20:13;99950.28;;;10.35;69.75
34103;BME280;20381;54.498;18.206;2023-06-14T02:22:39;99953.02;;;10.32;69.96
34103;BME280;20381;54.498;18.206;2023-06-14T02:25:06;99954.00;;;10.29;69.97
34103;BME280;20381;54.498;18.206;2023-06-14T02:27:35;99959.31;;;10.26;69.99
34103;BME280;20381;54.498;18.206;2023-06-14T02:30:03;99956.97;;;10.20;70.17
34103;BME280;20381;54.498;18.206;2023-06-14T02:32:30;99958.78;;;10.18;70.31
34103;BME280;20381;54.498;18.206;2023-06-14T02:34:56;99960.60;;;10.16;70.44
34103;BME280;20381;54.498;18.206;2023-06-14T02:37:22;99961.91;;;10.16;70.54
34103;BME280;20381;54.498;18.206;2023-06-14T02:39:49;99956.36;;;10.13;70.71
34103;BME280;20381;54.498;18.206;2023-06-14T02:42:15;99961.53;;;10.15;70.82
34103;BME280;20381;54.498;18.206;2023-06-14T02:44:42;99959.17;;;10.19;70.97
34103;BME280;20381;54.498;18.206;2023-06-14T02:47:09;99962.19;;;10.20;71.06
34103;BME280;20381;54.498;18.206;2023-06-14T02:49:38;99959.36;;;10.24;71.21
34103;BME280;20381;54.498;18.206;2023-06-14T02:52:05;99959.88;;;10.34;71.29
34103;BME280;20381;54.498;18.206;2023-06-14T02:54:32;99956.81;;;10.45;71.44
34103;BME280;20381;54.498;18.206;2023-06-14T02:56:58;99958.04;;;10.57;71.50
34103;BME280;20381;54.498;18.206;2023-06-14T02:59:24;99956.97;;;10.71;71.67
34103;BME280;20381;54.498;18.206;2023-06-14T03:01:51;99954.08;;;10.87;71.88
34103;BME280;20381;54.498;18.206;2023-06-14T03:04:18;99953.38;;;11.03;71.96
34103;BME280;20381;54.498;18.206;2023-06-14T03:06:44;99962.59;;;11.20;71.99
34103;BME280;20381;54.498;18.206;2023-06-14T03:09:12;99960.59;;;11.35;72.05
34103;BME280;20381;54.498;18.206;2023-06-14T03:11:38;99958.95;;;11.52;72.02
34103;BME280;20381;54.498;18.206;2023-06-14T03:14:05;99959.36;;;11.70;72.09
34103;BME280;20381;54.498;18.206;2023-06-14T03:16:32;99961.31;;;11.84;72.11
34103;BME280;20381;54.498;18.206;2023-06-14T03:18:58;99964.60;;;11.98;72.05
34103;BME280;20381;54.498;18.206;2023-06-14T03:21:25;99954.30;;;12.12;72.12
34103;BME280;20381;54.498;18.206;2023-06-14T03:23:52;99958.78;;;12.27;72.15
34103;BME280;20381;54.498;18.206;2023-06-14T03:26:18;99958.92;;;12.42;72.18
34103;BME280;20381;54.498;18.206;2023-06-14T03:28:45;99955.82;;;12.51;71.97
34103;BME280;20381;54.498;18.206;2023-06-14T03:31:13;99955.13;;;12.56;71.99
34103;BME280;20381;54.498;18.206;2023-06-14T03:33:40;99951.72;;;12.63;72.04
34103;BME280;20381;54.498;18.206;2023-06-14T03:36:06;99952.94;;;12.73;72.15
34103;BME280;20381;54.498;18.206;2023-06-14T03:38:33;99955.00;;;12.84;72.20
34103;BME280;20381;54.498;18.206;2023-06-14T03:41:00;99949.80;;;12.91;72.00
34103;BME280;20381;54.498;18.206;2023-06-14T03:43:27;99956.05;;;12.97;72.08
34103;BME280;20381;54.498;18.206;2023-06-14T03:45:55;99958.33;;;13.03;72.07
34103;BME280;20381;54.498;18.206;2023-06-14T03:48:22;99958.17;;;13.06;71.95
34103;BME280;20381;54.498;18.206;2023-06-14T03:50:48;99963.23;;;13.09;72.11
34103;BME280;20381;54.498;18.206;2023-06-14T03:53:14;99964.45;;;13.19;72.14
34103;BME280;20381;54.498;18.206;2023-06-14T03:55:41;99963.20;;;13.27;72.31
34103;BME280;20381;54.498;18.206;2023-06-14T03:58:07;99961.23;;;13.39;72.34
34103;BME280;20381;54.498;18.206;2023-06-14T04:00:34;99961.27;;;13.46;72.14
34103;BME280;20381;54.498;18.206;2023-06-14T04:03:01;99960.00;;;13.53;72.26
34103;BME280;20381;54.498;18.206;2023-06-14T04:05:30;99962.70;;;13.68;72.39
34103;BME280;20381;54.498;18.206;2023-06-14T04:07:57;99962.29;;;13.82;72.37
34103;BME280;20381;54.498;18.206;2023-06-14T04:10:24;99961.64;;;13.86;71.94
34103;BME280;20381;54.498;18.206;2023-06-14T04:12:51;99967.76;;;13.86;71.99
34103;BME280;20381;54.498;18.206;2023-06-14T04:15:17;99960.02;;;13.99;72.29
34103;BME280;20381;54.498;18.206;2023-06-14T04:17:44;99965.41;;;14.12;72.27
34103;BME280;20381;54.498;18.206;2023-06-14T04:20:12;99964.91;;;14.28;72.26
34103;BME280;20381;54.498;18.206;2023-06-14T04:22:38;99970.47;;;14.45;72.31
34103;BME280;20381;54.498;18.206;2023-06-14T04:25:07;99965.08;;;14.63;72.21
34103;BME280;20381;54.498;18.206;2023-06-14T04:27:34;99967.16;;;14.79;72.25
34103;BME280;20381;54.498;18.206;2023-06-14T04:30:02;99956.64;;;14.93;72.11
34103;BME280;20381;54.498;18.206;2023-06-14T04:32:29;99957.66;;;15.05;71.97
34103;BME280;20381;54.498;18.206;2023-06-14T04:34:58;99957.00;;;15.16;71.89
34103;BME280;20381;54.498;18.206;2023-06-14T04:37:25;99952.19;;;15.22;71.71
34103;BME280;20381;54.498;18.206;2023-06-14T04:39:55;99955.22;;;15.24;71.80
34103;BME280;20381;54.498;18.206;2023-06-14T04:42:22;99952.47;;;15.25;71.73
34103;BME280;20381;54.498;18.206;2023-06-14T04:44:52;99954.06;;;15.35;71.91
34103;BME280;20381;54.498;18.206;2023-06-14T04:47:22;99949.61;;;15.42;71.67
34103;BME280;20381;54.498;18.206;2023-06-14T04:49:51;99953.64;;;15.48;71.56
34103;BME280;20381;54.498;18.206;2023-06-14T04:52:18;99957.98;;;15.49;71.51
34103;BME280;20381;54.498;18.206;2023-06-14T04:54:47;99955.98;;;15.53;71.51
34103;BME280;20381;54.498;18.206;2023-06-14T04:57:13;99955.70;;;15.57;71.45
34103;BME280;20381;54.498;18.206;2023-06-14T04:59:42;99947.48;;;15.62;71.49
34103;BME280;20381;54.498;18.206;2023-06-14T05:02:10;99948.42;;;15.75;71.84
34103;BME280;20381;54.498;18.206;2023-06-14T05:04:38;99951.91;;;15.96;71.84
34103;BME280;20381;54.498;18.206;2023-06-14T05:07:09;99953.69;;;16.15;71.67
34103;BME280;20381;54.498;18.206;2023-06-14T05:09:37;99960.38;;;16.33;71.78
34103;BME280;20381;54.498;18.206;2023-06-14T05:12:04;99959.64;;;16.57;71.76
34103;BME280;20381;54.498;18.206;2023-06-14T05:14:33;99964.23;;;16.81;71.59
34103;BME280;20381;54.498;18.206;2023-06-14T05:16:59;99956.16;;;17.20;71.13
34103;BME280;20381;54.498;18.206;2023-06-14T05:19:26;99956.16;;;17.20;71.13
34103;BME280;20381;54.498;18.206;2023-06-14T05:21:52;99961.28;;;17.35;70.92
34103;BME280;20381;54.498;18.206;2023-06-14T05:24:19;99958.72;;;17.46;70.39
34103;BME280;20381;54.498;18.206;2023-06-14T05:26:46;99965.86;;;17.57;70.30
34103;BME280;20381;54.498;18.206;2023-06-14T05:29:13;99955.91;;;17.60;70.10
34103;BME280;20381;54.498;18.206;2023-06-14T05:31:39;99960.03;;;17.64;69.81
34103;BME280;20381;54.498;18.206;2023-06-14T05:34:06;99961.22;;;17.79;69.75
34103;BME280;20381;54.498;18.206;2023-06-14T05:36:33;99957.52;;;17.81;69.21
34103;BME280;20381;54.498;18.206;2023-06-14T05:38:59;99955.09;;;17.84;68.99
34103;BME280;20381;54.498;18.206;2023-06-14T05:41:27;99956.34;;;17.91;68.53
34103;BME280;20381;54.498;18.206;2023-06-14T05:43:57;99958.80;;;18.05;68.01
34103;BME280;20381;54.498;18.206;2023-06-14T05:46:24;99955.61;;;18.19;67.88
34103;BME280;20381;54.498;18.206;2023-06-14T05:48:52;99957.93;;;18.29;67.67
34103;BME280;20381;54.498;18.206;2023-06-14T05:51:18;99957.45;;;18.35;67.25
34103;BME280;20381;54.498;18.206;2023-06-14T05:53:46;99960.72;;;18.44;66.73
34103;BME280;20381;54.498;18.206;2023-06-14T05:56:13;99965.18;;;18.49;65.80
34103;BME280;20381;54.498;18.206;2023-06-14T05:58:40;99954.63;;;18.72;65.21
34103;BME280;20381;54.498;18.206;2023-06-14T06:01:06;99960.45;;;18.99;64.74
34103;BME280;20381;54.498;18.206;2023-06-14T06:03:33;99951.05;;;19.18;64.08
34103;BME280;20381;54.498;18.206;2023-06-14T06:06:00;99955.86;;;19.35;64.61
34103;BME280;20381;54.498;18.206;2023-06-14T06:08:27;99959.07;;;19.50;64.40
34103;BME280;20381;54.498;18.206;2023-06-14T06:10:54;99964.70;;;19.57;63.51
34103;BME280;20381;54.498;18.206;2023-06-14T06:13:20;99961.11;;;19.69;62.75
34103;BME280;20381;54.498;18.206;2023-06-14T06:15:46;99961.52;;;19.85;63.09
34103;BME280;20381;54.498;18.206;2023-06-14T06:18:13;99962.34;;;20.18;62.56
34103;BME280;20381;54.498;18.206;2023-06-14T06:20:39;99965.02;;;20.60;61.68
34103;BME280;20381;54.498;18.206;2023-06-14T06:23:05;99967.86;;;20.84;61.25
34103;BME280;20381;54.498;18.206;2023-06-14T06:25:32;99967.34;;;21.05;61.07
34103;BME280;20381;54.498;18.206;2023-06-14T06:27:59;99965.94;;;21.01;60.65
34103;BME280;20381;54.498;18.206;2023-06-14T06:30:26;99966.06;;;20.99;60.17
34103;BME280;20381;54.498;18.206;2023-06-14T06:32:52;99973.41;;;21.01;59.86
34103;BME280;20381;54.498;18.206;2023-06-14T06:35:19;99968.59;;;21.01;58.69
34103;BME280;20381;54.498;18.206;2023-06-14T06:37:45;99969.00;;;21.37;58.64
34103;BME280;20381;54.498;18.206;2023-06-14T06:40:12;99968.52;;;21.62;58.10
34103;BME280;20381;54.498;18.206;2023-06-14T06:42:38;99975.23;;;21.66;57.28
34103;BME280;20381;54.498;18.206;2023-06-14T06:45:05;99967.62;;;21.87;56.65
34103;BME280;20381;54.498;18.206;2023-06-14T06:47:32;99976.53;;;21.82;56.22
34103;BME280;20381;54.498;18.206;2023-06-14T06:49:59;99976.66;;;21.71;56.26
34103;BME280;20381;54.498;18.206;2023-06-14T06:52:25;99974.89;;;21.65;55.31
34103;BME280;20381;54.498;18.206;2023-06-14T06:54:52;99970.65;;;21.88;55.20
34103;BME280;20381;54.498;18.206;2023-06-14T06:57:20;99980.61;;;22.25;54.39
34103;BME280;20381;54.498;18.206;2023-06-14T06:59:49;99981.97;;;22.48;53.88
34103;BME280;20381;54.498;18.206;2023-06-14T07:02:16;99981.52;;;22.63;53.68
34103;BME280;20381;54.498;18.206;2023-06-14T07:04:43;99986.30;;;22.59;52.87
34103;BME280;20381;54.498;18.206;2023-06-14T07:07:09;99978.56;;;22.66;52.37
34103;BME280;20381;54.498;18.206;2023-06-14T07:09:36;99980.38;;;22.75;51.75
34103;BME280;20381;54.498;18.206;2023-06-14T07:12:03;99984.13;;;22.82;51.14
34103;BME280;20381;54.498;18.206;2023-06-14T07:14:30;99986.63;;;22.70;51.34
34103;BME280;20381;54.498;18.206;2023-06-14T07:16:57;99988.56;;;23.11;51.35
34103;BME280;20381;54.498;18.206;2023-06-14T07:19:23;99989.71;;;23.36;50.02
34103;BME280;20381;54.498;18.206;2023-06-14T07:21:49;99995.37;;;23.23;49.37
34103;BME280;20381;54.498;18.206;2023-06-14T07:24:16;99997.80;;;23.30;49.34
34103;BME280;20381;54.498;18.206;2023-06-14T07:26:42;99996.20;;;23.51;48.88
34103;BME280;20381;54.498;18.206;2023-06-14T07:29:08;100004.36;;;24.13;48.93
34103;BME280;20381;54.498;18.206;2023-06-14T07:31:35;99994.83;;;24.68;48.39
34103;BME280;20381;54.498;18.206;2023-06-14T07:34:01;99993.73;;;24.83;47.70
34103;BME280;20381;54.498;18.206;2023-06-14T07:36:28;100003.16;;;24.69;46.91
34103;BME280;20381;54.498;18.206;2023-06-14T07:38:54;99997.82;;;24.69;46.07
34103;BME280;20381;54.498;18.206;2023-06-14T07:41:21;100001.27;;;24.40;45.66
34103;BME280;20381;54.498;18.206;2023-06-14T07:43:48;100006.20;;;24.48;45.74
34103;BME280;20381;54.498;18.206;2023-06-14T07:46:14;100001.52;;;24.28;45.39
34103;BME280;20381;54.498;18.206;2023-06-14T07:48:40;100000.77;;;24.22;45.13
34103;BME280;20381;54.498;18.206;2023-06-14T07:51:07;100005.37;;;24.48;44.77
34103;BME280;20381;54.498;18.206;2023-06-14T07:53:33;100010.22;;;24.78;44.81
34103;BME280;20381;54.498;18.206;2023-06-14T07:56:00;100002.78;;;24.60;43.85
34103;BME280;20381;54.498;18.206;2023-06-14T07:58:26;100000.98;;;24.65;43.44
34103;BME280;20381;54.498;18.206;2023-06-14T08:00:52;99999.59;;;24.87;43.17
34103;BME280;20381;54.498;18.206;2023-06-14T08:03:19;100002.87;;;25.33;43.17
34103;BME280;20381;54.498;18.206;2023-06-14T08:05:45;99993.07;;;26.17;42.91
34103;BME280;20381;54.498;18.206;2023-06-14T08:08:12;99992.27;;;27.13;42.43
34103;BME280;20381;54.498;18.206;2023-06-14T08:10:38;99992.76;;;26.52;41.64
34103;BME280;20381;54.498;18.206;2023-06-14T08:13:04;99986.37;;;26.25;41.16
34103;BME280;20381;54.498;18.206;2023-06-14T08:15:31;99984.34;;;26.76;41.42
34103;BME280;20381;54.498;18.206;2023-06-14T08:17:59;99982.56;;;27.20;40.48
34103;BME280;20381;54.498;18.206;2023-06-14T08:20:27;99990.17;;;26.92;39.71
34103;BME280;20381;54.498;18.206;2023-06-14T08:22:53;99986.72;;;26.14;38.98
34103;BME280;20381;54.498;18.206;2023-06-14T08:25:21;99993.78;;;25.68;38.96
34103;BME280;20381;54.498;18.206;2023-06-14T08:27:48;100001.25;;;25.48;39.01
34103;BME280;20381;54.498;18.206;2023-06-14T08:30:15;99993.20;;;25.36;37.93
34103;BME280;20381;54.498;18.206;2023-06-14T08:32:44;100007.38;;;25.06;38.02
34103;BME280;20381;54.498;18.206;2023-06-14T08:35:10;100009.31;;;24.92;37.75
34103;BME280;20381;54.498;18.206;2023-06-14T08:37:39;100000.36;;;24.49;37.24
34103;BME280;20381;54.498;18.206;2023-06-14T08:40:21;100006.26;;;24.03;37.09
34103;BME280;20381;54.498;18.206;2023-06-14T08:42:50;100004.81;;;23.90;37.19
34103;BME280;20381;54.498;18.206;2023-06-14T08:45:17;100006.13;;;23.86;36.82
34103;BME280;20381;54.498;18.206;2023-06-14T08:47:48;100012.11;;;23.71;36.72
34103;BME280;20381;54.498;18.206;2023-06-14T08:50:22;100004.52;;;24.29;36.95
34103;BME280;20381;54.498;18.206;2023-06-14T08:52:51;100003.16;;;24.69;36.73
34103;BME280;20381;54.498;18.206;2023-06-14T08:55:20;100007.61;;;24.87;36.39
34103;BME280;20381;54.498;18.206;2023-06-14T08:57:49;100006.19;;;25.00;36.58
34103;BME280;20381;54.498;18.206;2023-06-14T09:00:17;100002.67;;;25.68;36.73
34103;BME280;20381;54.498;18.206;2023-06-14T09:02:47;100014.83;;;26.30;35.37
34103;BME280;20381;54.498;18.206;2023-06-14T09:05:14;100002.06;;;25.95;35.55
34103;BME280;20381;54.498;18.206;2023-06-14T09:07:42;100007.44;;;26.81;35.88
34103;BME280;20381;54.498;18.206;2023-06-14T09:10:10;100000.53;;;27.51;35.59
34103;BME280;20381;54.498;18.206;2023-06-14T09:12:38;99995.90;;;27.99;34.93
34103;BME280;20381;54.498;18.206;2023-06-14T09:15:06;100007.49;;;27.29;33.82
34103;BME280;20381;54.498;18.206;2023-06-14T09:17:36;99999.23;;;26.78;33.90
34103;BME280;20381;54.498;18.206;2023-06-14T09:20:04;100014.48;;;26.58;33.86
34103;BME280;20381;54.498;18.206;2023-06-14T09:22:35;100001.03;;;27.77;33.97
34103;BME280;20381;54.498;18.206;2023-06-14T09:25:02;99994.00;;;28.83;32.87
34103;BME280;20381;54.498;18.206;2023-06-14T09:27:29;100008.80;;;28.64;32.07
34103;BME280;20381;54.498;18.206;2023-06-14T09:29:56;99993.44;;;29.47;33.05
34103;BME280;20381;54.498;18.206;2023-06-14T09:32:22;100000.61;;;30.62;31.42
34103;BME280;20381;54.498;18.206;2023-06-14T09:34:49;99990.07;;;31.37;31.63
34103;BME280;20381;54.498;18.206;2023-06-14T09:37:29;99987.89;;;31.60;31.17
34103;BME280;20381;54.498;18.206;2023-06-14T09:39:56;99991.55;;;32.14;30.58
34103;BME280;20381;54.498;18.206;2023-06-14T09:42:22;99995.08;;;32.08;28.96
34103;BME280;20381;54.498;18.206;2023-06-14T09:44:53;100009.82;;;31.68;28.50
34103;BME280;20381;54.498;18.206;2023-06-14T09:47:20;99983.61;;;30.23;28.07
34103;BME280;20381;54.498;18.206;2023-06-14T09:49:47;99992.02;;;29.51;27.76
34103;BME280;20381;54.498;18.206;2023-06-14T09:52:18;99994.00;;;28.98;27.30
34103;BME280;20381;54.498;18.206;2023-06-14T09:54:46;99995.91;;;28.93;27.41
34103;BME280;20381;54.498;18.206;2023-06-14T09:57:15;99987.48;;;29.66;27.30
34103;BME280;20381;54.498;18.206;2023-06-14T09:59:43;99985.09;;;30.25;26.93
34103;BME280;20381;54.498;18.206;2023-06-14T10:02:26;99987.38;;;30.39;26.54
34103;BME280;20381;54.498;18.206;2023-06-14T10:05:03;99975.19;;;30.78;27.22
34103;BME280;20381;54.498;18.206;2023-06-14T10:10:10;99995.23;;;31.56;24.67
34103;BME280;20381;54.498;18.206;2023-06-14T10:12:36;99982.27;;;30.62;24.92
34103;BME280;20381;54.498;18.206;2023-06-14T10:15:05;99981.48;;;28.75;24.90
34103;BME280;20381;54.498;18.206;2023-06-14T10:17:48;99981.94;;;27.76;25.44
34103;BME280;20381;54.498;18.206;2023-06-14T10:23:09;99979.53;;;29.03;25.52
34103;BME280;20381;54.498;18.206;2023-06-14T10:25:35;99983.26;;;29.79;25.92
34103;BME280;20381;54.498;18.206;2023-06-14T10:31:01;99971.46;;;31.49;25.50
34103;BME280;20381;54.498;18.206;2023-06-14T10:33:32;99960.58;;;32.37;25.15
34103;BME280;20381;54.498;18.206;2023-06-14T10:39:16;99965.30;;;33.01;24.80
34103;BME280;20381;54.498;18.206;2023-06-14T10:41:55;99964.73;;;33.37;24.43
34103;BME280;20381;54.498;18.206;2023-06-14T10:46:55;99970.87;;;32.30;23.85
34103;BME280;20381;54.498;18.206;2023-06-14T10:49:38;99976.38;;;31.93;23.03
34103;BME280;20381;54.498;18.206;2023-06-14T10:52:13;99967.70;;;31.02;22.44
34103;BME280;20381;54.498;18.206;2023-06-14T10:57:49;99977.30;;;28.73;23.05
34103;BME280;20381;54.498;18.206;2023-06-14T11:00:16;99966.55;;;28.58;23.28
34103;BME280;20381;54.498;18.206;2023-06-14T11:05:26;99963.42;;;27.31;23.32
34103;BME280;20381;54.498;18.206;2023-06-14T11:08:40;99982.36;;;26.41;23.38
34103;BME280;20381;54.498;18.206;2023-06-14T11:11:00;99971.42;;;25.81;23.73
34103;BME280;20381;54.498;18.206;2023-06-14T11:13:27;99974.56;;;25.60;24.41
34103;BME280;20381;54.498;18.206;2023-06-14T11:15:54;99985.92;;;25.58;24.17
34103;BME280;20381;54.498;18.206;2023-06-14T11:18:23;99974.71;;;25.12;24.32
34103;BME280;20381;54.498;18.206;2023-06-14T11:20:55;99967.99;;;25.04;24.69
34103;BME280;20381;54.498;18.206;2023-06-14T11:23:22;99974.35;;;25.11;25.00
34103;BME280;20381;54.498;18.206;2023-06-14T11:25:53;99973.98;;;25.02;25.14
34103;BME280;20381;54.498;18.206;2023-06-14T11:28:21;99977.56;;;25.15;25.30
34103;BME280;20381;54.498;18.206;2023-06-14T11:31:01;99993.81;;;25.26;25.79
34103;BME280;20381;54.498;18.206;2023-06-14T11:33:27;99985.96;;;25.75;26.24
34103;BME280;20381;54.498;18.206;2023-06-14T11:35:54;99986.27;;;25.63;25.79
34103;BME280;20381;54.498;18.206;2023-06-14T11:38:22;99974.27;;;24.91;25.92
34103;BME280;20381;54.498;18.206;2023-06-14T11:40:48;99984.34;;;25.05;26.66
34103;BME280;20381;54.498;18.206;2023-06-14T11:43:14;99961.94;;;25.83;27.03
34103;BME280;20381;54.498;18.206;2023-06-14T11:45:40;99971.63;;;26.66;26.93
34103;BME280;20381;54.498;18.206;2023-06-14T11:48:07;99962.14;;;27.07;26.47
34103;BME280;20381;54.498;18.206;2023-06-14T11:50:37;99954.55;;;27.58;27.12
34103;BME280;20381;54.498;18.206;2023-06-14T11:53:04;99957.66;;;27.97;26.67
34103;BME280;20381;54.498;18.206;2023-06-14T11:55:39;99951.80;;;27.70;26.94
34103;BME280;20381;54.498;18.206;2023-06-14T11:58:07;99960.17;;;27.67;26.59
34103;BME280;20381;54.498;18.206;2023-06-14T12:00:35;99951.70;;;27.28;26.87
34103;BME280;20381;54.498;18.206;2023-06-14T12:03:02;99961.50;;;27.00;26.35
34103;BME280;20381;54.498;18.206;2023-06-14T12:05:29;99950.20;;;26.49;26.66
34103;BME280;20381;54.498;18.206;2023-06-14T12:08:02;99957.94;;;26.03;26.58
34103;BME280;20381;54.498;18.206;2023-06-14T12:10:28;99950.45;;;25.48;26.65
34103;BME280;20381;54.498;18.206;2023-06-14T12:12:58;99961.73;;;24.91;27.03
34103;BME280;20381;54.498;18.206;2023-06-14T12:15:29;99953.63;;;24.71;27.05
34103;BME280;20381;54.498;18.206;2023-06-14T12:17:56;99954.44;;;24.23;27.21
34103;BME280;20381;54.498;18.206;2023-06-14T12:20:28;99957.74;;;23.81;27.27
34103;BME280;20381;54.498;18.206;2023-06-14T12:23:00;99960.73;;;23.51;27.40
34103;BME280;20381;54.498;18.206;2023-06-14T12:25:33;99958.97;;;23.41;27.79
34103;BME280;20381;54.498;18.206;2023-06-14T12:28:06;99961.63;;;23.41;27.94
34103;BME280;20381;54.498;18.206;2023-06-14T12:30:39;99947.80;;;23.56;28.33
34103;BME280;20381;54.498;18.206;2023-06-14T12:33:06;99962.75;;;23.53;27.96
34103;BME280;20381;54.498;18.206;2023-06-14T12:35:34;99944.55;;;23.34;28.49
34103;BME280;20381;54.498;18.206;2023-06-14T12:38:02;99950.70;;;23.49;28.65
34103;BME280;20381;54.498;18.206;2023-06-14T12:40:34;99951.91;;;23.36;29.15
34103;BME280;20381;54.498;18.206;2023-06-14T12:43:01;99940.72;;;23.78;29.49
34103;BME280;20381;54.498;18.206;2023-06-14T12:45:28;99950.41;;;23.83;29.13
34103;BME280;20381;54.498;18.206;2023-06-14T12:47:54;99948.96;;;23.57;29.28
34103;BME280;20381;54.498;18.206;2023-06-14T12:50:21;99941.65;;;23.41;29.39
34103;BME280;20381;54.498;18.206;2023-06-14T12:52:49;99946.48;;;23.28;29.36
34103;BME280;20381;54.498;18.206;2023-06-14T12:55:20;99944.55;;;23.07;29.41
34103;BME280;20381;54.498;18.206;2023-06-14T12:57:46;99953.00;;;22.92;29.35
34103;BME280;20381;54.498;18.206;2023-06-14T13:00:16;99958.27;;;22.65;29.50
34103;BME280;20381;54.498;18.206;2023-06-14T13:02:45;99959.64;;;22.45;29.46
34103;BME280;20381;54.498;18.206;2023-06-14T13:05:12;99943.38;;;22.25;29.82
34103;BME280;20381;54.498;18.206;2023-06-14T13:07:39;99944.34;;;22.33;30.02
34103;BME280;20381;54.498;18.206;2023-06-14T13:10:07;99947.41;;;22.29;30.28
34103;BME280;20381;54.498;18.206;2023-06-14T13:12:36;99947.98;;;22.23;30.32